Time;durP1;ratioP1;P1;durP2;ratioP2;P2;SDS_P1;SDS_P2;PMS_P1;PMS_P2;Temp;Humidity;BMP_temperature;BMP_pressure;BME280_temperature;BME280_humidity;BME280_pressure;Samples;Min_cycle;Max_cycle;Signal;HPM_P1;HPM_P2
2023/09/06 00:00:33;;;;;;;4.90;3.78;;;;;;;;;;5032326;28;20026;-75
2023/09/06 00:03:00;;;;;;;7.68;3.50;;;;;;;;;;5034061;28;20037;-76
2023/09/06 00:05:29;;;;;;;5.30;3.97;;;;;;;;;;5032138;28;20425;-76
2023/09/06 00:07:56;;;;;;;6.43;4.00;;;;;;;;;;5031428;28;20120;-75
2023/09/06 00:10:22;;;;;;;4.93;3.90;;;;;;;;;;5032808;28;20699;-75
2023/09/06 00:12:48;;;;;;;7.65;4.38;;;;;;;;;;5032737;28;21784;-75
2023/09/06 00:15:15;;;;;;;6.47;4.10;;;;;;;;;;5032858;28;20116;-75
2023/09/06 00:17:41;;;;;;;5.35;4.32;;;;;;;;;;5032569;28;20698;-75
2023/09/06 00:23:02;;;;;;;5.60;4.13;;;;;;;;;;5032154;28;20044;-75
2023/09/06 00:25:31;;;;;;;7.60;4.55;;;;;;;;;;5031568;28;20045;-75
2023/09/06 00:27:58;;;;;;;5.72;4.20;;;;;;;;;;5025971;28;20037;-75
2023/09/06 00:30:24;;;;;;;5.18;4.32;;;;;;;;;;5034938;28;20531;-76
2023/09/06 00:32:52;;;;;;;6.97;4.22;;;;;;;;;;5032406;28;20083;-76
2023/09/06 00:35:25;;;;;;;6.07;3.85;;;;;;;;;;5032507;28;20041;-76
2023/09/06 00:37:52;;;;;;;6.60;4.15;;;;;;;;;;5032475;28;20114;-76
2023/09/06 00:40:19;;;;;;;7.93;4.57;;;;;;;;;;5013858;28;20369;-76
2023/09/06 00:42:47;;;;;;;7.32;4.53;;;;;;;;;;5015267;28;20034;-76
2023/09/06 00:45:15;;;;;;;6.47;4.15;;;;;;;;;;5032721;28;20041;-76
2023/09/06 00:47:42;;;;;;;6.20;4.20;;;;;;;;;;5013542;28;20056;-76
2023/09/06 00:50:13;;;;;;;4.88;3.80;;;;;;;;;;5029652;28;20080;-75
2023/09/06 00:52:40;;;;;;;6.63;3.90;;;;;;;;;;5031364;28;20148;-76
2023/09/06 00:55:07;;;;;;;5.75;3.90;;;;;;;;;;5030045;28;20034;-76
2023/09/06 00:57:33;;;;;;;9.05;4.20;;;;;;;;;;5031692;28;20120;-75
2023/09/06 01:00:00;;;;;;;6.10;3.97;;;;;;;;;;5031767;28;20041;-75
2023/09/06 01:02:26;;;;;;;9.25;4.45;;;;;;;;;;5030880;28;20029;-76
2023/09/06 01:04:53;;;;;;;6.97;4.20;;;;;;;;;;5031492;28;20081;-75
2023/09/06 01:07:24;;;;;;;5.57;4.00;;;;;;;;;;5032016;28;20116;-76
2023/09/06 01:09:50;;;;;;;9.65;4.55;;;;;;;;;;5031848;28;20044;-76
2023/09/06 01:12:16;;;;;;;6.85;4.20;;;;;;;;;;5031558;28;20432;-76
2023/09/06 01:14:43;;;;;;;7.25;4.05;;;;;;;;;;4997390;28;20025;-76
2023/09/06 01:17:10;;;;;;;5.35;4.30;;;;;;;;;;5013281;28;21346;-76
2023/09/06 01:19:40;;;;;;;5.63;3.85;;;;;;;;;;5031502;28;20412;-74
2023/09/06 01:22:11;;;;;;;6.57;4.28;;;;;;;;;;5029389;28;20044;-75
2023/09/06 01:24:37;;;;;;;5.65;4.20;;;;;;;;;;5026675;28;20067;-75
2023/09/06 01:27:05;;;;;;;7.32;3.92;;;;;;;;;;5024377;28;20067;-75
2023/09/06 01:29:31;;;;;;;7.68;4.20;;;;;;;;;;5030436;28;20029;-75
2023/09/06 01:31:58;;;;;;;6.57;4.15;;;;;;;;;;5047142;28;20017;-75
2023/09/06 01:34:24;;;;;;;5.22;3.80;;;;;;;;;;5030599;28;20368;-75
2023/09/06 01:36:50;;;;;;;6.88;3.97;;;;;;;;;;5028584;28;20100;-74
2023/09/06 01:39:16;;;;;;;7.63;3.85;;;;;;;;;;5030107;28;20132;-75
2023/09/06 01:41:43;;;;;;;6.82;4.50;;;;;;;;;;5023672;28;20035;-76
2023/09/06 01:44:09;;;;;;;6.90;4.07;;;;;;;;;;5030867;28;20064;-76
2023/09/06 01:46:35;;;;;;;6.50;4.00;;;;;;;;;;5031792;28;20049;-76
2023/09/06 01:49:02;;;;;;;4.43;3.85;;;;;;;;;;5030532;28;20041;-76
2023/09/06 01:51:31;;;;;;;5.80;3.95;;;;;;;;;;5029029;28;20037;-75
2023/09/06 01:53:57;;;;;;;10.85;4.40;;;;;;;;;;5030887;28;20052;-76
2023/09/06 01:56:24;;;;;;;5.90;3.80;;;;;;;;;;5031117;28;20032;-76
2023/09/06 01:58:51;;;;;;;5.95;3.97;;;;;;;;;;5029452;28;20045;-75
2023/09/06 02:01:18;;;;;;;7.97;3.95;;;;;;;;;;5030248;28;20029;-76
2023/09/06 02:03:45;;;;;;;6.15;3.75;;;;;;;;;;5030416;28;20618;-76
2023/09/06 02:06:11;;;;;;;8.63;4.28;;;;;;;;;;5028756;28;20045;-75
2023/09/06 02:08:39;;;;;;;7.97;3.83;;;;;;;;;;5031663;28;20087;-76
2023/09/06 02:11:08;;;;;;;6.38;3.70;;;;;;;;;;5030575;28;20120;-76
2023/09/06 02:13:35;;;;;;;9.20;4.10;;;;;;;;;;5028977;28;20035;-75
2023/09/06 02:16:01;;;;;;;5.72;4.55;;;;;;;;;;5029629;28;20477;-75
2023/09/06 02:18:28;;;;;;;5.63;4.20;;;;;;;;;;5026995;28;20033;-75
2023/09/06 02:20:58;;;;;;;5.65;3.67;;;;;;;;;;5011931;28;20504;-75
2023/09/06 02:23:24;;;;;;;5.50;4.07;;;;;;;;;;5030594;28;20040;-76
2023/09/06 02:25:51;;;;;;;5.70;4.10;;;;;;;;;;5028368;28;20033;-75
2023/09/06 02:28:17;;;;;;;4.45;3.70;;;;;;;;;;5028163;28;20095;-74
2023/09/06 02:30:46;;;;;;;8.32;4.35;;;;;;;;;;5029152;28;20041;-75
2023/09/06 02:33:14;;;;;;;4.57;3.83;;;;;;;;;;5011760;28;20037;-75
2023/09/06 02:35:41;;;;;;;5.85;3.95;;;;;;;;;;5028890;28;20381;-74
2023/09/06 02:38:08;;;;;;;4.88;3.88;;;;;;;;;;5029165;28;20039;-76
2023/09/06 02:40:34;;;;;;;4.65;3.65;;;;;;;;;;5028640;28;20037;-76
2023/09/06 02:43:01;;;;;;;7.93;3.90;;;;;;;;;;5030875;28;20488;-77
2023/09/06 02:45:36;;;;;;;5.60;3.72;;;;;;;;;;5028327;28;20033;-76
2023/09/06 02:48:16;;;;;;;5.68;3.95;;;;;;;;;;5039846;28;20033;-77
2023/09/06 02:50:44;;;;;;;7.15;3.83;;;;;;;;;;5012565;28;20574;-77
2023/09/06 02:53:20;;;;;;;6.70;4.18;;;;;;;;;;5028113;28;20446;-76
2023/09/06 02:55:51;;;;;;;4.68;3.88;;;;;;;;;;5025998;28;20095;-76
2023/09/06 02:58:24;;;;;;;5.25;3.97;;;;;;;;;;5027674;28;20040;-76
2023/09/06 03:00:55;;;;;;;3.92;3.42;;;;;;;;;;5027335;28;20095;-77
2023/09/06 03:03:22;;;;;;;6.38;4.15;;;;;;;;;;5041892;28;20138;-78
2023/09/06 03:05:48;;;;;;;5.03;3.78;;;;;;;;;;5026809;28;20045;-77
2023/09/06 03:08:17;;;;;;;7.82;3.83;;;;;;;;;;5024074;28;20037;-76
2023/09/06 03:10:46;;;;;;;6.20;3.47;;;;;;;;;;5023417;28;20042;-76
2023/09/06 03:13:16;;;;;;;6.40;3.65;;;;;;;;;;5025870;28;20037;-75
2023/09/06 03:15:43;;;;;;;9.13;3.92;;;;;;;;;;5027306;28;20033;-75
2023/09/06 03:18:11;;;;;;;4.20;3.58;;;;;;;;;;5009542;28;20664;-75
2023/09/06 03:20:44;;;;;;;4.88;3.80;;;;;;;;;;5006732;28;20029;-76
2023/09/06 03:23:19;;;;;;;4.75;3.45;;;;;;;;;;5043527;28;20040;-75
2023/09/06 03:25:54;;;;;;;5.70;3.78;;;;;;;;;;5025630;28;20049;-75
2023/09/06 03:28:25;;;;;;;6.28;3.78;;;;;;;;;;4992969;28;20033;-76
2023/09/06 03:30:52;;;;;;;6.82;4.28;;;;;;;;;;5006832;28;20052;-75
2023/09/06 03:33:18;;;;;;;5.72;3.80;;;;;;;;;;5024704;28;20512;-75
2023/09/06 03:35:48;;;;;;;5.45;3.35;;;;;;;;;;5029274;28;20452;-74
2023/09/06 03:38:17;;;;;;;4.63;3.20;;;;;;;;;;5031338;28;20068;-75
2023/09/06 03:40:44;;;;;;;5.38;3.60;;;;;;;;;;5015702;28;20053;-74
2023/09/06 03:43:19;;;;;;;4.85;3.65;;;;;;;;;;5028090;28;20036;-75
2023/09/06 03:45:55;;;;;;;5.43;3.45;;;;;;;;;;5030593;28;20037;-76
2023/09/06 03:48:23;;;;;;;6.38;3.30;;;;;;;;;;5027355;28;20033;-76
2023/09/06 03:50:51;;;;;;;5.13;3.17;;;;;;;;;;5028016;28;20065;-76
2023/09/06 03:53:18;;;;;;;4.78;3.67;;;;;;;;;;5030560;28;20045;-76
2023/09/06 03:55:46;;;;;;;4.65;3.28;;;;;;;;;;5025278;28;20073;-81
2023/09/06 03:58:13;;;;;;;6.22;3.65;;;;;;;;;;5025519;28;20471;-82
2023/09/06 04:00:44;;;;;;;6.50;3.45;;;;;;;;;;5027145;28;20124;-81
2023/09/06 04:03:22;;;;;;;5.75;4.32;;;;;;;;;;5028629;28;20061;-83
2023/09/06 04:05:50;;;;;;;5.05;3.40;;;;;;;;;;5027659;28;20655;-84
2023/09/06 04:08:18;;;;;;;5.82;4.15;;;;;;;;;;5026962;28;20530;-81
2023/09/06 04:10:49;;;;;;;5.90;3.78;;;;;;;;;;5029824;28;20512;-75
2023/09/06 04:13:16;;;;;;;3.92;3.33;;;;;;;;;;5044314;28;20087;-75
2023/09/06 04:15:43;;;;;;;5.95;3.40;;;;;;;;;;5029490;28;20036;-76
2023/09/06 04:18:10;;;;;;;5.10;3.50;;;;;;;;;;5031088;28;20127;-76
2023/09/06 04:20:39;;;;;;;6.43;3.53;;;;;;;;;;5029263;28;20125;-78
2023/09/06 04:23:08;;;;;;;4.18;3.13;;;;;;;;;;5030600;28;20409;-78
2023/09/06 04:25:44;;;;;;;5.97;3.25;;;;;;;;;;5030224;28;20041;-78
2023/09/06 04:28:15;;;;;;;5.03;3.53;;;;;;;;;;5013867;28;20034;-79
2023/09/06 04:30:45;;;;;;;7.55;3.38;;;;;;;;;;5032462;28;20044;-79
2023/09/06 04:33:14;;;;;;;7.45;3.63;;;;;;;;;;4997812;28;20087;-79
2023/09/06 04:35:47;;;;;;;6.20;3.55;;;;;;;;;;5032067;28;20049;-73
2023/09/06 04:38:19;;;;;;;6.15;3.88;;;;;;;;;;5027475;28;20044;-73
2023/09/06 04:40:47;;;;;;;6.95;3.85;;;;;;;;;;5034618;28;20264;-73
2023/09/06 04:43:17;;;;;;;9.05;4.32;;;;;;;;;;5033184;28;20063;-72
2023/09/06 04:45:44;;;;;;;7.43;4.45;;;;;;;;;;5015834;28;20030;-72
2023/09/06 04:48:12;;;;;;;8.75;4.50;;;;;;;;;;5030884;28;20124;-72
2023/09/06 04:50:39;;;;;;;8.80;4.78;;;;;;;;;;5012570;28;20098;-72
2023/09/06 04:53:07;;;;;;;6.45;4.40;;;;;;;;;;5033564;28;20029;-73
2023/09/06 04:55:37;;;;;;;6.95;4.15;;;;;;;;;;5026673;28;20034;-72
2023/09/06 04:58:08;;;;;;;5.90;4.10;;;;;;;;;;5030271;28;20033;-72
2023/09/06 05:00:41;;;;;;;10.43;4.68;;;;;;;;;;5026371;28;20038;-72
2023/09/06 05:03:10;;;;;;;8.13;4.10;;;;;;;;;;5023801;28;20032;-72
2023/09/06 05:05:37;;;;;;;8.13;4.53;;;;;;;;;;5027659;28;20072;-72
2023/09/06 05:08:04;;;;;;;6.60;3.75;;;;;;;;;;5031165;28;20060;-72
2023/09/06 05:10:31;;;;;;;6.38;3.60;;;;;;;;;;5030021;28;20049;-72
2023/09/06 05:12:59;;;;;;;6.38;4.15;;;;;;;;;;5029016;28;20033;-72
2023/09/06 05:15:25;;;;;;;10.10;4.80;;;;;;;;;;5029802;28;20033;-72
2023/09/06 05:17:51;;;;;;;7.22;4.45;;;;;;;;;;5027444;28;20195;-72
2023/09/06 05:20:33;;;;;;;6.18;3.75;;;;;;;;;;5012182;28;20178;-72
2023/09/06 05:23:04;;;;;;;7.93;4.00;;;;;;;;;;5038964;28;20060;-72
2023/09/06 05:25:33;;;;;;;7.47;4.32;;;;;;;;;;5027354;28;20132;-72
2023/09/06 05:28:10;;;;;;;6.20;4.10;;;;;;;;;;5025945;28;20041;-72
2023/09/06 05:30:39;;;;;;;7.45;4.38;;;;;;;;;;5028563;28;20048;-72
2023/09/06 05:33:06;;;;;;;5.85;4.03;;;;;;;;;;5029902;28;20045;-71
2023/09/06 05:35:34;;;;;;;6.82;3.22;;;;;;;;;;5026741;28;20072;-72
2023/09/06 05:38:03;;;;;;;6.20;4.30;;;;;;;;;;5026119;28;20033;-75
2023/09/06 05:40:30;;;;;;;8.45;3.38;;;;;;;;;;5011892;28;20212;-73
2023/09/06 05:42:57;;;;;;;5.40;3.10;;;;;;;;;;5029080;28;20428;-74
2023/09/06 05:45:26;;;;;;;3.92;3.10;;;;;;;;;;5028998;28;20034;-74
2023/09/06 05:47:53;;;;;;;4.47;3.08;;;;;;;;;;5008856;28;20045;-74
2023/09/06 05:50:20;;;;;;;4.15;2.95;;;;;;;;;;5009446;28;20518;-74
2023/09/06 05:52:48;;;;;;;6.25;2.97;;;;;;;;;;5029660;28;20049;-73
2023/09/06 05:55:14;;;;;;;4.45;2.80;;;;;;;;;;5028889;28;20088;-74
2023/09/06 05:57:42;;;;;;;4.55;3.05;;;;;;;;;;5028921;28;20033;-74
2023/09/06 06:00:12;;;;;;;6.20;2.88;;;;;;;;;;5030762;28;20037;-74
2023/09/06 06:02:45;;;;;;;4.00;2.70;;;;;;;;;;5029461;28;20044;-74
2023/09/06 06:05:12;;;;;;;4.30;2.60;;;;;;;;;;5024034;28;20054;-75
2023/09/06 06:07:39;;;;;;;4.65;2.50;;;;;;;;;;5027846;28;20032;-73
2023/09/06 06:10:09;;;;;;;3.10;2.80;;;;;;;;;;5030160;28;20134;-74
2023/09/06 06:12:37;;;;;;;3.67;2.75;;;;;;;;;;5028805;28;20037;-75
2023/09/06 06:15:04;;;;;;;4.20;2.85;;;;;;;;;;5030775;28;20037;-74
2023/09/06 06:17:30;;;;;;;3.95;2.50;;;;;;;;;;5030167;28;20060;-74
2023/09/06 06:19:56;;;;;;;3.33;2.30;;;;;;;;;;5030757;28;20448;-74
2023/09/06 06:22:23;;;;;;;5.65;2.80;;;;;;;;;;5029479;28;20124;-74
2023/09/06 06:24:50;;;;;;;4.65;2.72;;;;;;;;;;5030198;28;20037;-74
2023/09/06 06:27:16;;;;;;;4.32;2.53;;;;;;;;;;5029570;28;20037;-75
2023/09/06 06:29:42;;;;;;;3.22;2.70;;;;;;;;;;5029848;28;20041;-74
2023/09/06 06:32:09;;;;;;;3.58;2.67;;;;;;;;;;5030834;28;20405;-74
2023/09/06 06:34:39;;;;;;;6.05;2.80;;;;;;;;;;5028892;28;20104;-74
2023/09/06 06:37:05;;;;;;;5.50;3.00;;;;;;;;;;5029208;28;20084;-74
2023/09/06 06:39:32;;;;;;;7.80;3.47;;;;;;;;;;5029102;28;20091;-74
2023/09/06 06:41:58;;;;;;;8.27;3.67;;;;;;;;;;5029591;28;20041;-74
2023/09/06 06:44:32;;;;;;;7.00;3.83;;;;;;;;;;5027701;28;20033;-74
2023/09/06 06:46:58;;;;;;;6.97;3.92;;;;;;;;;;5030144;28;20079;-74
2023/09/06 06:49:24;;;;;;;6.07;3.63;;;;;;;;;;5028266;28;20041;-74
2023/09/06 06:51:51;;;;;;;4.75;3.53;;;;;;;;;;5028726;28;20032;-74
2023/09/06 06:54:17;;;;;;;8.40;3.53;;;;;;;;;;5029136;28;20036;-74
2023/09/06 06:56:44;;;;;;;5.15;2.83;;;;;;;;;;5027848;28;20037;-74
2023/09/06 06:59:10;;;;;;;6.25;3.20;;;;;;;;;;5028803;28;20420;-74
2023/09/06 07:01:37;;;;;;;5.95;3.22;;;;;;;;;;5030371;28;20504;-74
2023/09/06 07:04:06;;;;;;;3.78;2.63;;;;;;;;;;5029262;28;20033;-74
2023/09/06 07:06:32;;;;;;;3.45;2.35;;;;;;;;;;5027590;28;20059;-75
2023/09/06 07:09:03;;;;;;;3.30;2.40;;;;;;;;;;5029343;28;20579;-75
2023/09/06 07:11:30;;;;;;;3.92;2.80;;;;;;;;;;5027996;28;20065;-75
2023/09/06 07:13:56;;;;;;;5.22;2.80;;;;;;;;;;5028055;28;20083;-74
2023/09/06 07:16:23;;;;;;;3.55;2.30;;;;;;;;;;5029653;28;20086;-75
2023/09/06 07:18:50;;;;;;;4.85;2.83;;;;;;;;;;5028754;28;20109;-75
2023/09/06 07:21:17;;;;;;;4.07;2.45;;;;;;;;;;5027115;28;20084;-74
2023/09/06 07:23:43;;;;;;;4.35;2.60;;;;;;;;;;5029056;28;20034;-75
2023/09/06 07:26:09;;;;;;;4.57;2.67;;;;;;;;;;5028858;28;20033;-75
2023/09/06 07:28:40;;;;;;;3.85;2.78;;;;;;;;;;5027121;28;20034;-75
2023/09/06 07:31:07;;;;;;;4.47;2.88;;;;;;;;;;5028053;28;20392;-74
2023/09/06 07:33:33;;;;;;;5.60;2.90;;;;;;;;;;5029321;28;20068;-75
2023/09/06 07:36:00;;;;;;;5.72;3.10;;;;;;;;;;5009004;28;20037;-75
2023/09/06 07:38:26;;;;;;;5.97;3.15;;;;;;;;;;5027185;28;20043;-74
2023/09/06 07:40:56;;;;;;;4.53;2.85;;;;;;;;;;5027302;28;20032;-75
2023/09/06 07:43:23;;;;;;;5.28;2.70;;;;;;;;;;5028435;28;20068;-75
2023/09/06 07:45:49;;;;;;;4.55;3.10;;;;;;;;;;5027231;28;20038;-75
2023/09/06 07:48:15;;;;;;;5.28;3.03;;;;;;;;;;5027704;28;20072;-75
2023/09/06 07:50:41;;;;;;;3.40;2.53;;;;;;;;;;5029148;28;20451;-75
2023/09/06 07:53:08;;;;;;;5.05;2.63;;;;;;;;;;5028723;28;20040;-75
2023/09/06 07:55:34;;;;;;;3.58;2.45;;;;;;;;;;5027794;28;20096;-75
2023/09/06 07:58:01;;;;;;;4.55;2.35;;;;;;;;;;5028834;28;20412;-75
2023/09/06 08:00:28;;;;;;;4.47;2.85;;;;;;;;;;5027158;28;20135;-75
2023/09/06 08:02:54;;;;;;;4.88;2.83;;;;;;;;;;5027816;28;20048;-75
2023/09/06 08:05:21;;;;;;;3.08;2.47;;;;;;;;;;5028186;28;20041;-75
2023/09/06 08:07:47;;;;;;;5.90;2.65;;;;;;;;;;5028062;28;20041;-75
2023/09/06 08:10:13;;;;;;;2.58;2.33;;;;;;;;;;5027875;28;20041;-74
2023/09/06 08:12:40;;;;;;;7.72;2.90;;;;;;;;;;5027121;28;20219;-75
2023/09/06 08:15:08;;;;;;;3.70;2.50;;;;;;;;;;5029197;28;20076;-73
2023/09/06 08:17:34;;;;;;;5.55;2.67;;;;;;;;;;5028047;28;20642;-74
2023/09/06 08:20:00;;;;;;;3.60;2.53;;;;;;;;;;5031150;28;20062;-74
2023/09/06 08:22:26;;;;;;;3.20;2.35;;;;;;;;;;5030135;28;20038;-74
2023/09/06 08:24:53;;;;;;;3.03;2.30;;;;;;;;;;5031980;28;20033;-75
2023/09/06 08:27:19;;;;;;;4.50;2.45;;;;;;;;;;5028997;28;20128;-72
2023/09/06 08:29:45;;;;;;;3.40;2.30;;;;;;;;;;5031128;28;20408;-71
2023/09/06 08:32:12;;;;;;;3.30;2.25;;;;;;;;;;5030749;28;20077;-71
2023/09/06 08:34:38;;;;;;;3.38;2.30;;;;;;;;;;5035421;28;20049;-71
2023/09/06 08:37:04;;;;;;;5.68;2.28;;;;;;;;;;5033243;28;20052;-71
2023/09/06 08:39:30;;;;;;;3.58;2.58;;;;;;;;;;5034953;28;20033;-71
2023/09/06 08:41:58;;;;;;;3.15;2.25;;;;;;;;;;5032389;28;20124;-72
2023/09/06 08:44:25;;;;;;;3.25;2.00;;;;;;;;;;5038349;28;20661;-75
2023/09/06 08:46:53;;;;;;;4.78;2.30;;;;;;;;;;5036496;28;20121;-76
2023/09/06 08:49:21;;;;;;;3.85;2.33;;;;;;;;;;5034252;28;20120;-75
2023/09/06 08:51:48;;;;;;;4.72;2.10;;;;;;;;;;5032330;28;20038;-76
2023/09/06 08:54:15;;;;;;;2.83;2.20;;;;;;;;;;5000687;28;20448;-75
2023/09/06 08:56:43;;;;;;;4.15;2.10;;;;;;;;;;5036093;28;20044;-79
2023/09/06 08:59:09;;;;;;;4.50;2.53;;;;;;;;;;5035786;28;20032;-80
2023/09/06 09:01:37;;;;;;;6.78;2.90;;;;;;;;;;5032045;28;20475;-79
2023/09/06 09:04:04;;;;;;;5.75;2.53;;;;;;;;;;5013020;28;20064;-80
2023/09/06 09:06:30;;;;;;;3.17;2.10;;;;;;;;;;5032269;28;21239;-80
2023/09/06 09:08:56;;;;;;;5.25;2.70;;;;;;;;;;5029320;28;20440;-80
2023/09/06 09:11:22;;;;;;;4.35;2.00;;;;;;;;;;5033519;28;20037;-80
2023/09/06 09:13:49;;;;;;;2.63;2.13;;;24.90;83.20;;;;;;5031102;28;20401;-80
2023/09/06 09:16:16;;;;;;;3.40;2.25;;;25.00;66.00;;;;;;5030702;28;20026;-79
2023/09/06 09:18:44;;;;;;;2.97;2.17;;;24.90;66.00;;;;;;5031884;28;20026;-79
2023/09/06 09:21:11;;;;;;;9.23;2.40;;;24.90;66.00;;;;;;5029288;28;20124;-83
2023/09/06 09:23:52;;;;;;;5.55;2.30;;;24.80;65.90;;;;;;5030614;28;20034;-82
2023/09/06 09:26:20;;;;;;;5.47;2.50;;;24.80;65.90;;;;;;5030710;28;20068;-80
2023/09/06 09:28:46;;;;;;;5.30;2.55;;;24.80;65.90;;;;;;5030507;28;20040;-80
2023/09/06 09:31:15;;;;;;;8.77;2.85;;;24.70;66.60;;;;;;5029550;28;20033;-81
2023/09/06 09:33:44;;;;;;;5.40;2.47;;;24.70;66.40;;;;;;4995752;28;20088;-81
2023/09/06 09:36:14;;;;;;;3.38;2.45;;;24.70;66.90;;;;;;5030251;28;20038;-81
2023/09/06 09:38:42;;;;;;;6.03;2.33;;;24.60;66.80;;;;;;5027191;28;20033;-81
2023/09/06 09:41:08;;;;;;;4.18;2.47;;;24.60;66.90;;;;;;5030954;28;20100;-79
2023/09/06 09:43:35;;;;;;;8.70;2.47;;;24.60;66.80;;;;;;5028167;28;20034;-81
2023/09/06 09:46:02;;;;;;;2.42;2.20;;;24.60;67.20;;;;;;5027139;28;20029;-80
2023/09/06 09:48:31;;;;;;;6.13;2.50;;;24.60;67.10;;;;;;5031283;28;20092;-79
2023/09/06 09:51:04;;;;;;;8.20;3.78;;;24.60;67.80;;;;;;5026839;28;20448;-82
2023/09/06 09:53:32;;;;;;;7.45;4.15;;;24.60;68.50;;;;;;5029949;28;20044;-79
2023/09/06 09:56:06;;;;;;;11.85;5.45;;;24.60;69.30;;;;;;5031224;28;20030;-81
2023/09/06 09:58:36;;;;;;;12.48;6.13;;;24.50;69.80;;;;;;5027861;28;20500;-79
2023/09/06 10:01:05;;;;;;;15.10;6.95;;;24.50;70.30;;;;;;5031308;28;20078;-80
2023/09/06 10:03:36;;;;;;;14.20;7.15;;;24.60;71.10;;;;;;5031732;28;20049;-80
2023/09/06 10:06:05;;;;;;;11.38;5.85;;;24.50;71.10;;;;;;5028474;28;20049;-81
2023/09/06 10:08:35;;;;;;;10.32;4.30;;;24.60;70.00;;;;;;5030915;28;20034;-80
2023/09/06 10:11:02;;;;;;;9.98;4.97;;;24.60;69.60;;;;;;5031110;28;20083;-80
2023/09/06 10:13:29;;;;;;;9.05;4.88;;;24.50;69.50;;;;;;5028082;28;20030;-80
2023/09/06 10:15:56;;;;;;;7.50;4.28;;;24.60;69.50;;;;;;5025980;28;20036;-80
2023/09/06 10:18:22;;;;;;;6.35;4.10;;;24.50;69.00;;;;;;5029935;28;20117;-80
2023/09/06 10:20:49;;;;;;;5.68;3.80;;;24.60;69.30;;;;;;5027729;28;20132;-80
2023/09/06 10:23:17;;;;;;;8.35;4.00;;;24.50;69.50;;;;;;5030773;28;20025;-80
2023/09/06 10:25:49;;;;;;;5.55;3.88;;;24.50;68.90;;;;;;5031533;28;20037;-80
2023/09/06 10:28:20;;;;;;;5.45;3.40;;;24.50;68.90;;;;;;5027634;28;20034;-80
2023/09/06 10:30:54;;;;;;;4.25;2.97;;;24.40;68.20;;;;;;5029876;28;20041;-80
2023/09/06 10:33:35;;;;;;;4.30;2.95;;;24.40;68.50;;;;;;5029779;28;20048;-80
2023/09/06 10:36:16;;;;;;;4.93;2.80;;;24.40;67.90;;;;;;5029178;28;20508;-80
2023/09/06 10:38:51;;;;;;;5.45;2.72;;;24.40;68.20;;;;;;5029179;28;20029;-80
2023/09/06 10:41:18;;;;;;;3.67;2.63;;;24.40;67.60;;;;;;5029109;28;20055;-80
2023/09/06 10:44:01;;;;;;;2.88;2.42;;;24.40;67.50;;;;;;5029202;28;20034;-80
2023/09/06 10:46:28;;;;;;;4.28;2.78;;;;;;;;;;5007513;28;20084;-79
2023/09/06 10:49:13;;;;;;;2.90;2.58;;;;;;;;;;5027783;28;20025;-80
2023/09/06 10:51:57;;;;;;;4.00;2.50;;;;;;;;;;5011785;28;20048;-80
2023/09/06 10:54:24;;;;;;;3.40;2.57;;;;;;;;;;5030143;28;20439;-80
2023/09/06 10:56:58;;;;;;;2.67;2.22;;;;;;;;;;5028144;28;20036;-80
2023/09/06 10:59:24;;;;;;;5.35;2.35;;;;;;;;;;5030472;28;20126;-80
2023/09/06 11:02:10;;;;;;;2.10;1.80;;;;;;;;;;5028410;28;20142;-80
2023/09/06 11:04:36;;;;;;;;;;;;;;;;;;5029529;28;20122;-80
2023/09/06 11:07:10;;;;;;;2.95;2.00;;;;;;;;;;5029965;28;20383;-80
2023/09/06 11:09:50;;;;;;;2.28;1.70;;;;;;;;;;5028709;28;20048;-80
2023/09/06 11:12:16;;;;;;;3.25;2.35;;;;;;;;;;5028573;28;20033;-80
2023/09/06 11:14:47;;;;;;;2.78;2.03;;;;;;;;;;5029755;28;20026;-80
2023/09/06 11:17:24;;;;;;;1.83;1.58;;;;;;;;;;5029651;28;20044;-79
2023/09/06 11:19:50;;;;;;;2.70;1.73;;;;;;;;;;5012374;28;20088;-78
2023/09/06 11:22:17;;;;;;;2.53;1.67;;;;;;;;;;5028832;28;20036;-79
2023/09/06 11:24:43;;;;;;;2.45;1.88;;;;;;;;;;5027723;28;20408;-78
2023/09/06 11:27:17;;;;;;;2.90;1.80;;;;;;;;;;5028837;28;20103;-78
2023/09/06 11:29:44;;;;;;;1.85;1.60;;;;;;;;;;5029052;28;20141;-78
2023/09/06 11:32:13;;;;;;;2.13;1.42;;;;;;;;;;5027452;28;20457;-78
2023/09/06 11:34:43;;;;;;;2.10;1.90;;;;;;;;;;5028766;28;20090;-79
2023/09/06 11:37:12;;;;;;;2.40;1.70;;;;;;;;;;5027168;28;20136;-79
2023/09/06 11:39:42;;;;;;;2.85;1.80;;;;;;;;;;5029339;28;20592;-78
2023/09/06 11:42:11;;;;;;;2.40;1.63;;;;;;;;;;5028977;28;20044;-77
2023/09/06 11:44:43;;;;;;;1.85;1.75;;;;;;;;;;5040721;28;20489;-79
2023/09/06 11:47:10;;;;;;;1.73;1.40;;;;;;;;;;5028129;28;20087;-78
2023/09/06 11:49:39;;;;;;;2.22;1.75;;;;;;;;;;5027019;28;20045;-78
2023/09/06 11:52:06;;;;;;;2.75;1.60;;;;;;;;;;5010617;28;20111;-78
2023/09/06 11:54:32;;;;;;;2.85;1.60;;;;;;;;;;5029865;28;20096;-78
2023/09/06 11:56:59;;;;;;;2.03;1.50;;;;;;;;;;5031565;28;20083;-78
2023/09/06 11:59:28;;;;;;;3.58;1.80;;;;;;;;;;5015946;28;20369;-78
2023/09/06 12:02:01;;;;;;;1.60;1.50;;;;;;;;;;5032871;28;20072;-78
2023/09/06 12:04:29;;;;;;;2.80;1.30;;;;;;;;;;5027250;28;20509;-79
2023/09/06 12:06:56;;;;;;;2.58;1.70;;;;;;;;;;5033168;28;20041;-78
2023/09/06 12:09:23;;;;;;;1.58;1.48;;;;;;;;;;5031750;28;20029;-78
2023/09/06 12:11:50;;;;;;;2.67;1.52;;;;;;;;;;5031815;28;20143;-80
2023/09/06 12:14:17;;;;;;;2.35;1.63;;;;;;;;;;5030958;28;20120;-82
2023/09/06 12:16:44;;;;;;;4.35;1.77;;;;;;;;;;5032223;28;20068;-77
2023/09/06 12:19:11;;;;;;;4.90;1.70;;;;;;;;;;5013484;28;20507;-77
2023/09/06 12:21:38;;;;;;;2.67;2.00;;;;;;;;;;5032833;28;20040;-76
2023/09/06 12:24:04;;;;;;;4.35;1.63;;;;;;;;;;5033706;28;20125;-73
2023/09/06 12:26:31;;;;;;;4.63;1.63;;;;;;;;;;5031914;28;20037;-72
2023/09/06 12:28:57;;;;;;;7.22;2.17;;;;;;;;;;5031194;28;20286;-73
2023/09/06 12:31:23;;;;;;;2.33;1.60;;;;;;;;;;5030741;28;20044;-72
2023/09/06 12:33:51;;;;;;;4.65;1.83;;;;;;;;;;5032604;28;20676;-75
2023/09/06 12:36:18;;;;;;;4.40;1.70;;;;;;;;;;5031996;28;20040;-74
2023/09/06 12:38:44;;;;;;;3.22;1.40;;;;;;;;;;5032007;28;20030;-73
2023/09/06 12:41:12;;;;;;;5.97;1.85;;;;;;;;;;5030952;28;20091;-74
2023/09/06 12:43:38;;;;;;;3.05;1.65;;;;;;;;;;5030612;28;20415;-77
2023/09/06 12:46:06;;;;;;;2.63;1.80;;;;;;;;;;5031922;28;20420;-74
2023/09/06 12:48:32;;;;;;;3.75;1.75;;;;;;;;;;5030949;28;20065;-78
2023/09/06 12:50:59;;;;;;;2.60;1.52;;;;;;;;;;5031017;28;20492;-74
2023/09/06 12:53:25;;;;;;;3.80;1.88;;;;;;;;;;5029687;28;20050;-75
2023/09/06 12:55:51;;;;;;;2.30;1.55;;;;;;;;;;5031556;28;20045;-75
2023/09/06 12:58:18;;;;;;;2.78;1.80;;;;;;;;;;5031405;28;20128;-75
2023/09/06 13:00:44;;;;;;;1.60;1.50;;;;;;;;;;5030785;28;20036;-75
2023/09/06 13:03:11;;;;;;;2.92;1.25;;;;;;;;;;5030452;28;20448;-73
2023/09/06 13:05:40;;;;;;;2.95;1.63;;;;;;;;;;5028526;28;20056;-74
2023/09/06 13:08:06;;;;;;;5.05;1.50;;;;;;;;;;5031646;28;20052;-75
2023/09/06 13:10:33;;;;;;;1.92;1.50;;;;;;;;;;5027265;28;20112;-74
2023/09/06 13:12:59;;;;;;;2.13;1.50;;;;;;;;;;5029866;28;20032;-73
2023/09/06 13:15:25;;;;;;;2.78;1.20;;;;;;;;;;5027988;28;20044;-75
2023/09/06 13:17:51;;;;;;;2.28;1.38;;;;;;;;;;5028417;28;20487;-73
2023/09/06 13:20:18;;;;;;;4.20;1.40;;;;;;;;;;5030347;28;20412;-75
2023/09/06 13:22:44;;;;;;;4.55;1.50;;;;;;;;;;5030270;28;20570;-73
2023/09/06 13:25:11;;;;;;;1.55;1.45;;;;;;;;;;5029322;28;20044;-74
2023/09/06 13:27:44;;;;;;;1.48;1.17;;;;;;;;;;5030374;28;20091;-75
2023/09/06 13:30:10;;;;;;;2.17;1.20;;;;;;;;;;5030509;28;20044;-75
2023/09/06 13:32:37;;;;;;;3.67;1.23;;;;;;;;;;5044406;28;20163;-75
2023/09/06 13:35:04;;;;;;;3.05;1.15;;;;;;;;;;5030550;28;20053;-74
2023/09/06 13:37:34;;;;;;;4.88;1.38;;;;;;;;;;5030365;28;20037;-74
2023/09/06 13:40:00;;;;;;;1.27;1.17;;;;;;;;;;5011119;28;20042;-72
2023/09/06 13:42:28;;;;;;;6.10;1.40;;;;;;;;;;5031880;28;20030;-74
2023/09/06 13:44:54;;;;;;;3.33;1.35;;;;;;;;;;5029410;28;20033;-75
2023/09/06 13:47:21;;;;;;;1.08;0.95;;;;;;;;;;5030060;28;20120;-74
2023/09/06 13:49:49;;;;;;;4.72;1.45;;;;;;;;;;5031696;28;20185;-74
2023/09/06 13:52:15;;;;;;;3.28;1.40;;;;;;;;;;5029983;28;20674;-74
2023/09/06 13:54:41;;;;;;;2.22;1.00;;;;;;;;;;5027550;28;20479;-77
2023/09/06 13:57:08;;;;;;;2.42;1.17;;;;;;;;;;4995933;28;20037;-77
2023/09/06 13:59:34;;;;;;;4.45;1.30;;;;;;;;;;5030078;28;20030;-74
2023/09/06 14:02:00;;;;;;;2.58;1.13;;;;;;;;;;5030591;28;20036;-74
2023/09/06 14:04:27;;;;;;;1.67;1.27;;;;;;;;;;5030831;28;20050;-73
2023/09/06 14:06:54;;;;;;;1.38;1.20;;;;;;;;;;5029966;28;20034;-72
2023/09/06 14:09:22;;;;;;;2.50;1.10;;;;;;;;;;5008232;28;20542;-72
2023/09/06 14:11:49;;;;;;;3.72;1.50;;;;;;;;;;5031298;28;20033;-74
2023/09/06 14:14:15;;;;;;;2.05;0.93;;;;;;;;;;5029183;28;20024;-73
2023/09/06 14:16:41;;;;;;;2.30;1.20;;;;;;;;;;5028447;28;20596;-74
2023/09/06 14:19:08;;;;;;;2.00;1.10;;;;;;;;;;5029763;28;20076;-73
2023/09/06 14:21:34;;;;;;;5.25;1.00;;;;;;;;;;5027183;28;20077;-74
2023/09/06 14:24:00;;;;;;;4.65;1.30;;;;;;;;;;5030328;28;20103;-73
2023/09/06 14:26:28;;;;;;;2.50;1.35;;;;;;;;;;5029724;28;20143;-73
2023/09/06 14:28:55;;;;;;;3.05;1.33;;;;;;;;;;5030003;28;20120;-74
2023/09/06 14:31:22;;;;;;;3.53;1.58;;;;;;;;;;5027938;28;20047;-73
2023/09/06 14:33:48;;;;;;;3.50;1.25;;;;;;;;;;5028400;28;20044;-74
2023/09/06 14:36:15;;;;;;;4.72;1.42;;;;;;;;;;5027549;28;20045;-75